sensor_id;sensor_type;location;lat;lon;timestamp;P1;durP1;ratioP1;P2;durP2;ratioP2
67665;SDS011;54448;51.472;-2.574;2023-04-06T00:00:21;24.63;;;10.98;;
67665;SDS011;54448;51.472;-2.574;2023-04-06T00:02:48;21.45;;;11.25;;
67665;SDS011;54448;51.472;-2.574;2023-04-06T00:05:13;22.50;;;11.18;;
67665;SDS011;54448;51.472;-2.574;2023-04-06T00:07:38;24.65;;;11.85;;
67665;SDS011;54448;51.472;-2.574;2023-04-06T00:10:04;22.50;;;10.90;;
67665;SDS011;54448;51.472;-2.574;2023-04-06T00:12:30;20.65;;;10.40;;
67665;SDS011;54448;51.472;-2.574;2023-04-06T00:14:55;21.75;;;10.77;;
67665;SDS011;54448;51.472;-2.574;2023-04-06T00:17:21;20.58;;;10.88;;
67665;SDS011;54448;51.472;-2.574;2023-04-06T00:19:46;21.60;;;10.77;;
67665;SDS011;54448;51.472;-2.574;2023-04-06T00:22:11;19.77;;;10.43;;
67665;SDS011;54448;51.472;-2.574;2023-04-06T00:24:37;21.25;;;10.98;;
67665;SDS011;54448;51.472;-2.574;2023-04-06T00:27:02;20.10;;;10.00;;
67665;SDS011;54448;51.472;-2.574;2023-04-06T00:29:27;18.10;;;10.05;;
67665;SDS011;54448;51.472;-2.574;2023-04-06T00:31:53;17.08;;;9.55;;
67665;SDS011;54448;51.472;-2.574;2023-04-06T00:34:18;18.52;;;9.20;;
67665;SDS011;54448;51.472;-2.574;2023-04-06T00:36:43;18.60;;;9.32;;
67665;SDS011;54448;51.472;-2.574;2023-04-06T00:39:09;21.02;;;9.45;;
67665;SDS011;54448;51.472;-2.574;2023-04-06T00:41:35;18.10;;;9.15;;
67665;SDS011;54448;51.472;-2.574;2023-04-06T00:44:00;18.02;;;9.25;;
67665;SDS011;54448;51.472;-2.574;2023-04-06T00:46:26;17.52;;;9.88;;
67665;SDS011;54448;51.472;-2.574;2023-04-06T00:48:51;17.52;;;9.85;;
67665;SDS011;54448;51.472;-2.574;2023-04-06T00:51:16;16.35;;;9.38;;
67665;SDS011;54448;51.472;-2.574;2023-04-06T00:53:42;18.38;;;9.55;;
67665;SDS011;54448;51.472;-2.574;2023-04-06T00:56:07;18.50;;;9.57;;
67665;SDS011;54448;51.472;-2.574;2023-04-06T00:58:34;20.48;;;9.63;;
67665;SDS011;54448;51.472;-2.574;2023-04-06T01:01:02;16.05;;;9.23;;
67665;SDS011;54448;51.472;-2.574;2023-04-06T01:03:28;17.15;;;9.63;;
67665;SDS011;54448;51.472;-2.574;2023-04-06T01:05:53;17.50;;;9.07;;
67665;SDS011;54448;51.472;-2.574;2023-04-06T01:08:23;15.77;;;9.07;;
67665;SDS011;54448;51.472;-2.574;2023-04-06T01:10:48;17.23;;;9.63;;
67665;SDS011;54448;51.472;-2.574;2023-04-06T01:13:14;17.52;;;8.63;;
67665;SDS011;54448;51.472;-2.574;2023-04-06T01:15:39;17.42;;;9.00;;
67665;SDS011;54448;51.472;-2.574;2023-04-06T01:18:07;14.82;;;8.63;;
67665;SDS011;54448;51.472;-2.574;2023-04-06T01:20:35;16.80;;;9.27;;
67665;SDS011;54448;51.472;-2.574;2023-04-06T01:23:00;17.20;;;9.13;;
67665;SDS011;54448;51.472;-2.574;2023-04-06T01:25:26;12.98;;;7.68;;
67665;SDS011;54448;51.472;-2.574;2023-04-06T01:27:51;15.15;;;8.02;;
67665;SDS011;54448;51.472;-2.574;2023-04-06T01:30:17;13.75;;;7.95;;
67665;SDS011;54448;51.472;-2.574;2023-04-06T01:32:42;13.52;;;7.68;;
67665;SDS011;54448;51.472;-2.574;2023-04-06T01:35:08;15.25;;;7.88;;
67665;SDS011;54448;51.472;-2.574;2023-04-06T01:37:33;11.48;;;7.07;;
67665;SDS011;54448;51.472;-2.574;2023-04-06T01:39:59;13.15;;;7.07;;
67665;SDS011;54448;51.472;-2.574;2023-04-06T01:42:25;11.38;;;6.50;;
67665;SDS011;54448;51.472;-2.574;2023-04-06T01:44:51;12.13;;;6.43;;
67665;SDS011;54448;51.472;-2.574;2023-04-06T01:47:16;10.50;;;6.80;;
67665;SDS011;54448;51.472;-2.574;2023-04-06T01:49:42;13.50;;;5.95;;
67665;SDS011;54448;51.472;-2.574;2023-04-06T01:52:07;14.50;;;6.40;;
67665;SDS011;54448;51.472;-2.574;2023-04-06T01:54:32;10.50;;;5.32;;
67665;SDS011;54448;51.472;-2.574;2023-04-06T01:56:58;7.75;;;4.43;;
67665;SDS011;54448;51.472;-2.574;2023-04-06T01:59:23;8.88;;;5.15;;
67665;SDS011;54448;51.472;-2.574;2023-04-06T02:01:49;8.50;;;4.70;;
67665;SDS011;54448;51.472;-2.574;2023-04-06T02:04:14;9.23;;;4.85;;
67665;SDS011;54448;51.472;-2.574;2023-04-06T02:06:40;7.55;;;4.25;;
67665;SDS011;54448;51.472;-2.574;2023-04-06T02:09:06;8.73;;;4.47;;
67665;SDS011;54448;51.472;-2.574;2023-04-06T02:11:31;8.90;;;4.57;;
67665;SDS011;54448;51.472;-2.574;2023-04-06T02:13:56;8.00;;;4.13;;
67665;SDS011;54448;51.472;-2.574;2023-04-06T02:16:22;10.40;;;3.88;;
67665;SDS011;54448;51.472;-2.574;2023-04-06T02:18:47;7.05;;;3.00;;
67665;SDS011;54448;51.472;-2.574;2023-04-06T02:21:12;4.40;;;2.80;;
67665;SDS011;54448;51.472;-2.574;2023-04-06T02:23:38;3.58;;;1.90;;
67665;SDS011;54448;51.472;-2.574;2023-04-06T02:26:03;4.60;;;2.03;;
67665;SDS011;54448;51.472;-2.574;2023-04-06T02:28:29;4.07;;;1.73;;
67665;SDS011;54448;51.472;-2.574;2023-04-06T02:30:54;4.10;;;1.50;;
67665;SDS011;54448;51.472;-2.574;2023-04-06T02:33:20;3.47;;;1.20;;
67665;SDS011;54448;51.472;-2.574;2023-04-06T02:35:45;4.97;;;1.08;;
67665;SDS011;54448;51.472;-2.574;2023-04-06T02:38:11;5.10;;;1.48;;
67665;SDS011;54448;51.472;-2.574;2023-04-06T02:40:36;4.40;;;1.02;;
67665;SDS011;54448;51.472;-2.574;2023-04-06T02:43:01;4.32;;;1.02;;
67665;SDS011;54448;51.472;-2.574;2023-04-06T02:45:27;2.20;;;0.70;;
67665;SDS011;54448;51.472;-2.574;2023-04-06T02:47:52;3.03;;;0.90;;
67665;SDS011;54448;51.472;-2.574;2023-04-06T02:50:17;5.65;;;1.00;;
67665;SDS011;54448;51.472;-2.574;2023-04-06T02:52:43;3.45;;;0.85;;
67665;SDS011;54448;51.472;-2.574;2023-04-06T02:55:08;2.83;;;0.77;;
67665;SDS011;54448;51.472;-2.574;2023-04-06T02:57:34;3.75;;;0.90;;
67665;SDS011;54448;51.472;-2.574;2023-04-06T02:59:59;4.40;;;0.88;;
67665;SDS011;54448;51.472;-2.574;2023-04-06T03:02:25;6.22;;;0.98;;
67665;SDS011;54448;51.472;-2.574;2023-04-06T03:04:50;5.20;;;0.80;;
67665;SDS011;54448;51.472;-2.574;2023-04-06T03:07:15;7.32;;;1.00;;
67665;SDS011;54448;51.472;-2.574;2023-04-06T03:09:41;4.28;;;0.77;;
67665;SDS011;54448;51.472;-2.574;2023-04-06T03:12:06;4.25;;;0.90;;
67665;SDS011;54448;51.472;-2.574;2023-04-06T03:14:32;4.78;;;0.80;;
67665;SDS011;54448;51.472;-2.574;2023-04-06T03:16:57;4.40;;;0.80;;
67665;SDS011;54448;51.472;-2.574;2023-04-06T03:19:22;2.60;;;1.05;;
67665;SDS011;54448;51.472;-2.574;2023-04-06T03:21:48;5.88;;;0.93;;
67665;SDS011;54448;51.472;-2.574;2023-04-06T03:24:13;3.22;;;0.88;;
67665;SDS011;54448;51.472;-2.574;2023-04-06T03:26:38;3.25;;;0.90;;
67665;SDS011;54448;51.472;-2.574;2023-04-06T03:29:04;9.10;;;1.38;;
67665;SDS011;54448;51.472;-2.574;2023-04-06T03:31:30;3.90;;;1.00;;
67665;SDS011;54448;51.472;-2.574;2023-04-06T03:33:55;6.93;;;1.02;;
67665;SDS011;54448;51.472;-2.574;2023-04-06T03:36:21;6.35;;;1.27;;
67665;SDS011;54448;51.472;-2.574;2023-04-06T03:38:46;6.72;;;0.95;;
67665;SDS011;54448;51.472;-2.574;2023-04-06T03:41:12;14.55;;;1.83;;
67665;SDS011;54448;51.472;-2.574;2023-04-06T03:43:37;11.90;;;1.60;;
67665;SDS011;54448;51.472;-2.574;2023-04-06T03:46:02;12.68;;;1.92;;
67665;SDS011;54448;51.472;-2.574;2023-04-06T03:48:28;21.50;;;3.05;;
67665;SDS011;54448;51.472;-2.574;2023-04-06T03:50:53;23.88;;;2.72;;
67665;SDS011;54448;51.472;-2.574;2023-04-06T03:53:18;12.85;;;3.05;;
67665;SDS011;54448;51.472;-2.574;2023-04-06T03:55:44;26.58;;;4.40;;
67665;SDS011;54448;51.472;-2.574;2023-04-06T03:58:09;14.13;;;3.00;;
67665;SDS011;54448;51.472;-2.574;2023-04-06T04:00:34;13.70;;;2.47;;
67665;SDS011;54448;51.472;-2.574;2023-04-06T04:03:00;23.00;;;3.83;;
67665;SDS011;54448;51.472;-2.574;2023-04-06T04:05:27;24.58;;;3.55;;
67665;SDS011;54448;51.472;-2.574;2023-04-06T04:07:52;23.95;;;3.70;;
67665;SDS011;54448;51.472;-2.574;2023-04-06T04:10:17;23.13;;;3.13;;
67665;SDS011;54448;51.472;-2.574;2023-04-06T04:12:43;26.55;;;3.95;;
67665;SDS011;54448;51.472;-2.574;2023-04-06T04:15:08;26.17;;;3.50;;
67665;SDS011;54448;51.472;-2.574;2023-04-06T04:17:34;23.92;;;3.40;;
67665;SDS011;54448;51.472;-2.574;2023-04-06T04:19:59;33.42;;;3.70;;
67665;SDS011;54448;51.472;-2.574;2023-04-06T04:22:25;24.15;;;3.30;;
67665;SDS011;54448;51.472;-2.574;2023-04-06T04:24:52;35.03;;;4.30;;
67665;SDS011;54448;51.472;-2.574;2023-04-06T04:27:17;25.42;;;2.60;;
67665;SDS011;54448;51.472;-2.574;2023-04-06T04:29:42;25.35;;;3.30;;
67665;SDS011;54448;51.472;-2.574;2023-04-06T04:32:08;24.80;;;3.55;;
67665;SDS011;54448;51.472;-2.574;2023-04-06T04:34:34;23.40;;;2.88;;
67665;SDS011;54448;51.472;-2.574;2023-04-06T04:36:59;17.13;;;2.70;;
67665;SDS011;54448;51.472;-2.574;2023-04-06T04:39:25;26.45;;;3.03;;
67665;SDS011;54448;51.472;-2.574;2023-04-06T04:41:50;36.40;;;4.20;;
67665;SDS011;54448;51.472;-2.574;2023-04-06T04:44:15;29.23;;;3.30;;
67665;SDS011;54448;51.472;-2.574;2023-04-06T04:46:41;40.28;;;5.18;;
67665;SDS011;54448;51.472;-2.574;2023-04-06T04:49:06;29.77;;;4.13;;
67665;SDS011;54448;51.472;-2.574;2023-04-06T04:51:31;37.40;;;4.82;;
67665;SDS011;54448;51.472;-2.574;2023-04-06T04:53:57;35.47;;;3.72;;
67665;SDS011;54448;51.472;-2.574;2023-04-06T04:56:23;39.50;;;3.92;;
67665;SDS011;54448;51.472;-2.574;2023-04-06T04:58:48;24.92;;;4.45;;
67665;SDS011;54448;51.472;-2.574;2023-04-06T05:01:13;54.42;;;5.30;;
67665;SDS011;54448;51.472;-2.574;2023-04-06T05:03:39;26.27;;;3.45;;
67665;SDS011;54448;51.472;-2.574;2023-04-06T05:06:05;28.00;;;3.42;;
67665;SDS011;54448;51.472;-2.574;2023-04-06T05:08:30;35.17;;;3.65;;
67665;SDS011;54448;51.472;-2.574;2023-04-06T05:10:56;28.95;;;4.65;;
67665;SDS011;54448;51.472;-2.574;2023-04-06T05:13:21;26.55;;;3.65;;
67665;SDS011;54448;51.472;-2.574;2023-04-06T05:15:47;31.95;;;4.88;;
67665;SDS011;54448;51.472;-2.574;2023-04-06T05:18:12;29.02;;;5.00;;
67665;SDS011;54448;51.472;-2.574;2023-04-06T05:20:39;39.22;;;4.63;;
67665;SDS011;54448;51.472;-2.574;2023-04-06T05:23:04;32.67;;;5.22;;
67665;SDS011;54448;51.472;-2.574;2023-04-06T05:25:30;36.03;;;4.80;;
67665;SDS011;54448;51.472;-2.574;2023-04-06T05:27:55;33.70;;;4.80;;
67665;SDS011;54448;51.472;-2.574;2023-04-06T05:30:21;33.22;;;5.45;;
67665;SDS011;54448;51.472;-2.574;2023-04-06T05:32:46;36.95;;;5.40;;
67665;SDS011;54448;51.472;-2.574;2023-04-06T05:35:12;44.63;;;7.43;;
67665;SDS011;54448;51.472;-2.574;2023-04-06T05:37:38;40.17;;;6.03;;
67665;SDS011;54448;51.472;-2.574;2023-04-06T05:40:04;37.95;;;6.10;;
67665;SDS011;54448;51.472;-2.574;2023-04-06T05:42:36;14.00;;;4.15;;
67665;SDS011;54448;51.472;-2.574;2023-04-06T05:45:06;34.78;;;5.05;;
67665;SDS011;54448;51.472;-2.574;2023-04-06T05:47:32;31.52;;;5.97;;
67665;SDS011;54448;51.472;-2.574;2023-04-06T05:49:57;31.08;;;5.47;;
67665;SDS011;54448;51.472;-2.574;2023-04-06T05:52:22;33.45;;;6.53;;
67665;SDS011;54448;51.472;-2.574;2023-04-06T05:54:48;33.90;;;7.10;;
67665;SDS011;54448;51.472;-2.574;2023-04-06T05:57:13;43.10;;;7.88;;
67665;SDS011;54448;51.472;-2.574;2023-04-06T05:59:38;37.03;;;7.10;;
67665;SDS011;54448;51.472;-2.574;2023-04-06T06:02:04;41.22;;;8.32;;
67665;SDS011;54448;51.472;-2.574;2023-04-06T06:04:30;39.30;;;8.95;;
67665;SDS011;54448;51.472;-2.574;2023-04-06T06:06:56;36.05;;;8.80;;
67665;SDS011;54448;51.472;-2.574;2023-04-06T06:09:21;38.90;;;9.30;;
67665;SDS011;54448;51.472;-2.574;2023-04-06T06:11:47;54.20;;;11.27;;
67665;SDS011;54448;51.472;-2.574;2023-04-06T06:14:13;45.78;;;10.45;;
67665;SDS011;54448;51.472;-2.574;2023-04-06T06:16:38;40.75;;;10.13;;
67665;SDS011;54448;51.472;-2.574;2023-04-06T06:19:03;46.42;;;9.98;;
67665;SDS011;54448;51.472;-2.574;2023-04-06T06:21:29;35.45;;;8.73;;
67665;SDS011;54448;51.472;-2.574;2023-04-06T06:23:56;37.33;;;9.07;;
67665;SDS011;54448;51.472;-2.574;2023-04-06T06:26:21;43.70;;;9.25;;
67665;SDS011;54448;51.472;-2.574;2023-04-06T06:28:47;42.67;;;9.30;;
67665;SDS011;54448;51.472;-2.574;2023-04-06T06:31:12;37.05;;;8.32;;
67665;SDS011;54448;51.472;-2.574;2023-04-06T06:33:37;43.63;;;7.70;;
67665;SDS011;54448;51.472;-2.574;2023-04-06T06:36:03;30.95;;;7.05;;
67665;SDS011;54448;51.472;-2.574;2023-04-06T06:38:28;32.72;;;7.70;;
67665;SDS011;54448;51.472;-2.574;2023-04-06T06:40:54;24.45;;;7.22;;
67665;SDS011;54448;51.472;-2.574;2023-04-06T06:43:19;27.15;;;7.80;;
67665;SDS011;54448;51.472;-2.574;2023-04-06T06:45:45;32.08;;;7.10;;
67665;SDS011;54448;51.472;-2.574;2023-04-06T06:48:10;33.58;;;8.60;;
67665;SDS011;54448;51.472;-2.574;2023-04-06T06:50:36;27.35;;;7.93;;
67665;SDS011;54448;51.472;-2.574;2023-04-06T06:53:01;31.85;;;8.50;;
67665;SDS011;54448;51.472;-2.574;2023-04-06T06:55:26;32.42;;;7.18;;
67665;SDS011;54448;51.472;-2.574;2023-04-06T06:57:52;39.03;;;9.30;;
67665;SDS011;54448;51.472;-2.574;2023-04-06T07:00:18;23.40;;;8.18;;
67665;SDS011;54448;51.472;-2.574;2023-04-06T07:02:45;29.50;;;8.45;;
67665;SDS011;54448;51.472;-2.574;2023-04-06T07:05:14;33.17;;;8.50;;
67665;SDS011;54448;51.472;-2.574;2023-04-06T07:07:40;30.17;;;8.05;;
67665;SDS011;54448;51.472;-2.574;2023-04-06T07:10:06;38.13;;;8.82;;
67665;SDS011;54448;51.472;-2.574;2023-04-06T07:12:32;35.40;;;8.80;;
67665;SDS011;54448;51.472;-2.574;2023-04-06T07:14:58;35.35;;;7.82;;
67665;SDS011;54448;51.472;-2.574;2023-04-06T07:17:23;33.58;;;8.25;;
67665;SDS011;54448;51.472;-2.574;2023-04-06T07:19:48;32.10;;;7.80;;
67665;SDS011;54448;51.472;-2.574;2023-04-06T07:22:14;31.63;;;8.45;;
67665;SDS011;54448;51.472;-2.574;2023-04-06T07:24:40;28.75;;;7.75;;
67665;SDS011;54448;51.472;-2.574;2023-04-06T07:27:05;28.70;;;7.93;;
67665;SDS011;54448;51.472;-2.574;2023-04-06T07:29:30;31.15;;;8.50;;
67665;SDS011;54448;51.472;-2.574;2023-04-06T07:31:56;34.10;;;8.50;;
67665;SDS011;54448;51.472;-2.574;2023-04-06T07:34:21;27.75;;;8.02;;
67665;SDS011;54448;51.472;-2.574;2023-04-06T07:36:47;24.25;;;7.63;;
67665;SDS011;54448;51.472;-2.574;2023-04-06T07:39:12;20.98;;;6.43;;
67665;SDS011;54448;51.472;-2.574;2023-04-06T07:41:38;31.00;;;6.72;;
67665;SDS011;54448;51.472;-2.574;2023-04-06T07:44:03;31.55;;;6.78;;
67665;SDS011;54448;51.472;-2.574;2023-04-06T07:46:29;28.40;;;6.20;;
67665;SDS011;54448;51.472;-2.574;2023-04-06T07:48:56;20.45;;;5.93;;
67665;SDS011;54448;51.472;-2.574;2023-04-06T07:51:22;16.60;;;4.60;;
67665;SDS011;54448;51.472;-2.574;2023-04-06T07:53:47;25.17;;;5.22;;
67665;SDS011;54448;51.472;-2.574;2023-04-06T07:56:13;22.75;;;5.20;;
67665;SDS011;54448;51.472;-2.574;2023-04-06T07:58:40;19.15;;;5.40;;
67665;SDS011;54448;51.472;-2.574;2023-04-06T08:01:05;21.35;;;6.75;;
67665;SDS011;54448;51.472;-2.574;2023-04-06T08:03:32;17.25;;;5.82;;
67665;SDS011;54448;51.472;-2.574;2023-04-06T08:05:58;17.77;;;6.28;;
67665;SDS011;54448;51.472;-2.574;2023-04-06T08:08:24;26.70;;;6.22;;
67665;SDS011;54448;51.472;-2.574;2023-04-06T08:10:49;17.75;;;5.35;;
67665;SDS011;54448;51.472;-2.574;2023-04-06T08:13:15;20.10;;;5.60;;
67665;SDS011;54448;51.472;-2.574;2023-04-06T08:15:41;15.05;;;4.70;;
67665;SDS011;54448;51.472;-2.574;2023-04-06T08:18:06;17.95;;;4.60;;
67665;SDS011;54448;51.472;-2.574;2023-04-06T08:20:31;27.92;;;5.38;;
67665;SDS011;54448;51.472;-2.574;2023-04-06T08:22:57;19.92;;;5.50;;
67665;SDS011;54448;51.472;-2.574;2023-04-06T08:25:22;18.55;;;5.97;;
67665;SDS011;54448;51.472;-2.574;2023-04-06T08:27:48;26.20;;;5.18;;
67665;SDS011;54448;51.472;-2.574;2023-04-06T08:30:13;15.98;;;5.10;;
67665;SDS011;54448;51.472;-2.574;2023-04-06T08:32:40;73.78;;;18.08;;
67665;SDS011;54448;51.472;-2.574;2023-04-06T08:35:06;19.50;;;5.97;;
67665;SDS011;54448;51.472;-2.574;2023-04-06T08:37:32;16.95;;;4.95;;
67665;SDS011;54448;51.472;-2.574;2023-04-06T08:39:58;13.88;;;4.97;;
67665;SDS011;54448;51.472;-2.574;2023-04-06T08:42:25;8.68;;;3.72;;
67665;SDS011;54448;51.472;-2.574;2023-04-06T08:44:51;17.30;;;5.35;;
67665;SDS011;54448;51.472;-2.574;2023-04-06T08:47:17;18.75;;;4.10;;
67665;SDS011;54448;51.472;-2.574;2023-04-06T08:49:43;16.38;;;3.90;;
67665;SDS011;54448;51.472;-2.574;2023-04-06T08:52:10;21.70;;;4.53;;
67665;SDS011;54448;51.472;-2.574;2023-04-06T08:54:36;19.38;;;4.05;;
67665;SDS011;54448;51.472;-2.574;2023-04-06T08:57:02;12.82;;;3.70;;
67665;SDS011;54448;51.472;-2.574;2023-04-06T08:59:28;16.85;;;3.92;;
67665;SDS011;54448;51.472;-2.574;2023-04-06T09:01:53;10.55;;;3.42;;
67665;SDS011;54448;51.472;-2.574;2023-04-06T09:04:20;12.40;;;3.60;;
67665;SDS011;54448;51.472;-2.574;2023-04-06T09:06:45;16.88;;;3.72;;
67665;SDS011;54448;51.472;-2.574;2023-04-06T09:09:11;18.90;;;3.60;;
67665;SDS011;54448;51.472;-2.574;2023-04-06T09:11:46;10.35;;;2.97;;
67665;SDS011;54448;51.472;-2.574;2023-04-06T09:14:13;17.48;;;3.58;;
67665;SDS011;54448;51.472;-2.574;2023-04-06T09:16:44;13.02;;;2.60;;
67665;SDS011;54448;51.472;-2.574;2023-04-06T09:19:10;9.93;;;2.40;;
67665;SDS011;54448;51.472;-2.574;2023-04-06T09:21:37;12.52;;;3.17;;
67665;SDS011;54448;51.472;-2.574;2023-04-06T09:24:03;7.95;;;2.08;;
67665;SDS011;54448;51.472;-2.574;2023-04-06T09:26:29;10.35;;;2.40;;
67665;SDS011;54448;51.472;-2.574;2023-04-06T09:28:55;11.02;;;2.20;;
67665;SDS011;54448;51.472;-2.574;2023-04-06T09:31:26;8.80;;;2.42;;
67665;SDS011;54448;51.472;-2.574;2023-04-06T09:33:52;16.63;;;2.03;;
67665;SDS011;54448;51.472;-2.574;2023-04-06T09:36:18;12.77;;;1.95;;
67665;SDS011;54448;51.472;-2.574;2023-04-06T09:38:54;6.45;;;1.65;;
67665;SDS011;54448;51.472;-2.574;2023-04-06T09:41:30;10.35;;;1.75;;
67665;SDS011;54448;51.472;-2.574;2023-04-06T09:44:06;10.43;;;2.08;;
67665;SDS011;54448;51.472;-2.574;2023-04-06T09:46:33;6.18;;;1.58;;
67665;SDS011;54448;51.472;-2.574;2023-04-06T09:49:06;6.60;;;1.30;;
67665;SDS011;54448;51.472;-2.574;2023-04-06T09:54:01;9.75;;;1.75;;
67665;SDS011;54448;51.472;-2.574;2023-04-06T09:56:31;9.70;;;1.60;;
67665;SDS011;54448;51.472;-2.574;2023-04-06T10:01:30;15.50;;;2.35;;
67665;SDS011;54448;51.472;-2.574;2023-04-06T10:04:06;8.65;;;1.77;;
67665;SDS011;54448;51.472;-2.574;2023-04-06T10:06:38;10.88;;;1.58;;
67665;SDS011;54448;51.472;-2.574;2023-04-06T10:09:04;8.93;;;1.70;;
67665;SDS011;54448;51.472;-2.574;2023-04-06T10:11:32;9.73;;;1.90;;
67665;SDS011;54448;51.472;-2.574;2023-04-06T10:13:58;6.20;;;1.65;;
67665;SDS011;54448;51.472;-2.574;2023-04-06T10:16:25;10.40;;;2.80;;
67665;SDS011;54448;51.472;-2.574;2023-04-06T10:18:52;11.93;;;1.90;;
67665;SDS011;54448;51.472;-2.574;2023-04-06T10:21:23;13.88;;;2.35;;
67665;SDS011;54448;51.472;-2.574;2023-04-06T10:23:51;13.82;;;2.20;;
67665;SDS011;54448;51.472;-2.574;2023-04-06T10:26:19;8.57;;;2.10;;
67665;SDS011;54448;51.472;-2.574;2023-04-06T10:28:45;9.57;;;1.80;;
67665;SDS011;54448;51.472;-2.574;2023-04-06T10:31:12;12.40;;;2.88;;
67665;SDS011;54448;51.472;-2.574;2023-04-06T10:33:37;14.13;;;3.05;;
67665;SDS011;54448;51.472;-2.574;2023-04-06T10:36:21;24.27;;;3.50;;
67665;SDS011;54448;51.472;-2.574;2023-04-06T10:38:53;10.93;;;2.95;;
67665;SDS011;54448;51.472;-2.574;2023-04-06T10:41:20;13.57;;;2.53;;
67665;SDS011;54448;51.472;-2.574;2023-04-06T10:43:45;11.43;;;2.60;;
67665;SDS011;54448;51.472;-2.574;2023-04-06T10:46:24;14.30;;;3.40;;
67665;SDS011;54448;51.472;-2.574;2023-04-06T10:48:53;18.05;;;4.38;;
67665;SDS011;54448;51.472;-2.574;2023-04-06T10:51:18;12.43;;;3.20;;
67665;SDS011;54448;51.472;-2.574;2023-04-06T10:53:45;16.02;;;3.05;;
67665;SDS011;54448;51.472;-2.574;2023-04-06T10:56:14;23.63;;;3.67;;
67665;SDS011;54448;51.472;-2.574;2023-04-06T10:58:46;19.52;;;4.20;;
67665;SDS011;54448;51.472;-2.574;2023-04-06T11:01:14;18.95;;;3.50;;
67665;SDS011;54448;51.472;-2.574;2023-04-06T11:03:43;16.30;;;3.70;;
67665;SDS011;54448;51.472;-2.574;2023-04-06T11:06:10;17.60;;;3.65;;
67665;SDS011;54448;51.472;-2.574;2023-04-06T11:08:35;22.70;;;3.70;;
67665;SDS011;54448;51.472;-2.574;2023-04-06T11:11:09;14.27;;;3.10;;
67665;SDS011;54448;51.472;-2.574;2023-04-06T11:13:36;23.25;;;2.70;;
67665;SDS011;54448;51.472;-2.574;2023-04-06T11:16:05;13.10;;;2.47;;
67665;SDS011;54448;51.472;-2.574;2023-04-06T11:18:31;14.38;;;1.95;;
67665;SDS011;54448;51.472;-2.574;2023-04-06T11:20:56;11.10;;;1.50;;
67665;SDS011;54448;51.472;-2.574;2023-04-06T11:23:22;9.52;;;1.33;;
67665;SDS011;54448;51.472;-2.574;2023-04-06T11:25:51;5.53;;;1.15;;
67665;SDS011;54448;51.472;-2.574;2023-04-06T11:28:17;10.65;;;1.40;;
67665;SDS011;54448;51.472;-2.574;2023-04-06T11:30:43;9.98;;;1.98;;
67665;SDS011;54448;51.472;-2.574;2023-04-06T11:33:08;9.65;;;1.67;;
67665;SDS011;54448;51.472;-2.574;2023-04-06T11:35:34;8.10;;;1.50;;
67665;SDS011;54448;51.472;-2.574;2023-04-06T11:38:02;12.82;;;1.60;;
67665;SDS011;54448;51.472;-2.574;2023-04-06T11:40:28;8.93;;;1.75;;
67665;SDS011;54448;51.472;-2.574;2023-04-06T11:42:55;12.65;;;1.52;;
67665;SDS011;54448;51.472;-2.574;2023-04-06T11:45:21;12.35;;;1.95;;
67665;SDS011;54448;51.472;-2.574;2023-04-06T11:47:54;10.63;;;1.48;;
67665;SDS011;54448;51.472;-2.574;2023-04-06T11:50:25;6.25;;;1.20;;
67665;SDS011;54448;51.472;-2.574;2023-04-06T11:52:59;2.70;;;0.88;;
67665;SDS011;54448;51.472;-2.574;2023-04-06T11:55:26;3.40;;;1.10;;
67665;SDS011;54448;51.472;-2.574;2023-04-06T11:57:51;5.85;;;1.30;;
67665;SDS011;54448;51.472;-2.574;2023-04-06T12:00:17;7.05;;;1.17;;
67665;SDS011;54448;51.472;-2.574;2023-04-06T12:02:46;6.10;;;1.08;;
67665;SDS011;54448;51.472;-2.574;2023-04-06T12:05:12;6.40;;;1.35;;
67665;SDS011;54448;51.472;-2.574;2023-04-06T12:07:38;8.65;;;1.75;;
67665;SDS011;54448;51.472;-2.574;2023-04-06T12:10:03;7.38;;;1.13;;
67665;SDS011;54448;51.472;-2.574;2023-04-06T12:12:30;6.90;;;1.73;;
67665;SDS011;54448;51.472;-2.574;2023-04-06T12:14:55;9.55;;;1.40;;
67665;SDS011;54448;51.472;-2.574;2023-04-06T12:17:21;9.23;;;1.25;;
67665;SDS011;54448;51.472;-2.574;2023-04-06T12:19:46;7.63;;;1.25;;
67665;SDS011;54448;51.472;-2.574;2023-04-06T12:22:12;5.43;;;1.17;;
67665;SDS011;54448;51.472;-2.574;2023-04-06T12:24:37;6.82;;;1.98;;
67665;SDS011;54448;51.472;-2.574;2023-04-06T12:27:02;5.72;;;1.23;;
67665;SDS011;54448;51.472;-2.574;2023-04-06T12:29:28;8.65;;;1.88;;
67665;SDS011;54448;51.472;-2.574;2023-04-06T12:31:53;5.68;;;1.15;;
67665;SDS011;54448;51.472;-2.574;2023-04-06T12:34:18;6.70;;;1.20;;
67665;SDS011;54448;51.472;-2.574;2023-04-06T12:36:44;15.40;;;2.00;;
67665;SDS011;54448;51.472;-2.574;2023-04-06T12:39:09;13.18;;;1.80;;
67665;SDS011;54448;51.472;-2.574;2023-04-06T12:41:36;14.07;;;2.00;;
67665;SDS011;54448;51.472;-2.574;2023-04-06T12:44:01;3.03;;;0.70;;
67665;SDS011;54448;51.472;-2.574;2023-04-06T12:46:27;3.42;;;0.50;;
67665;SDS011;54448;51.472;-2.574;2023-04-06T12:48:54;30.10;;;3.00;;
67665;SDS011;54448;51.472;-2.574;2023-04-06T12:51:20;3.33;;;0.52;;
67665;SDS011;54448;51.472;-2.574;2023-04-06T12:53:45;1.95;;;0.50;;
67665;SDS011;54448;51.472;-2.574;2023-04-06T12:56:12;3.70;;;0.75;;
67665;SDS011;54448;51.472;-2.574;2023-04-06T12:58:38;1.17;;;0.45;;
67665;SDS011;54448;51.472;-2.574;2023-04-06T13:01:06;1.60;;;0.40;;
67665;SDS011;54448;51.472;-2.574;2023-04-06T13:03:32;3.45;;;0.60;;
67665;SDS011;54448;51.472;-2.574;2023-04-06T13:05:58;4.60;;;0.70;;
67665;SDS011;54448;51.472;-2.574;2023-04-06T13:08:24;1.45;;;0.70;;
67665;SDS011;54448;51.472;-2.574;2023-04-06T13:10:50;1.70;;;0.60;;
67665;SDS011;54448;51.472;-2.574;2023-04-06T13:13:17;2.75;;;0.70;;
67665;SDS011;54448;51.472;-2.574;2023-04-06T13:15:45;3.08;;;0.77;;
67665;SDS011;54448;51.472;-2.574;2023-04-06T13:18:11;1.75;;;0.65;;
67665;SDS011;54448;51.472;-2.574;2023-04-06T13:20:36;1.58;;;0.60;;
67665;SDS011;54448;51.472;-2.574;2023-04-06T13:23:02;2.45;;;0.50;;
67665;SDS011;54448;51.472;-2.574;2023-04-06T13:25:27;5.57;;;0.60;;
67665;SDS011;54448;51.472;-2.574;2023-04-06T13:27:53;2.20;;;0.65;;
67665;SDS011;54448;51.472;-2.574;2023-04-06T13:30:19;5.57;;;0.70;;
67665;SDS011;54448;51.472;-2.574;2023-04-06T13:32:44;2.72;;;0.75;;
67665;SDS011;54448;51.472;-2.574;2023-04-06T13:35:10;8.68;;;1.17;;
67665;SDS011;54448;51.472;-2.574;2023-04-06T13:37:36;4.80;;;1.25;;
67665;SDS011;54448;51.472;-2.574;2023-04-06T13:40:03;5.47;;;1.05;;
67665;SDS011;54448;51.472;-2.574;2023-04-06T13:42:29;5.50;;;1.05;;
67665;SDS011;54448;51.472;-2.574;2023-04-06T13:44:55;5.20;;;0.90;;
67665;SDS011;54448;51.472;-2.574;2023-04-06T13:47:21;3.13;;;0.80;;
67665;SDS011;54448;51.472;-2.574;2023-04-06T13:49:46;5.43;;;0.88;;
67665;SDS011;54448;51.472;-2.574;2023-04-06T13:52:12;8.52;;;1.33;;
67665;SDS011;54448;51.472;-2.574;2023-04-06T13:54:38;5.78;;;1.00;;
67665;SDS011;54448;51.472;-2.574;2023-04-06T13:57:03;5.38;;;0.93;;
67665;SDS011;54448;51.472;-2.574;2023-04-06T13:59:36;2.88;;;0.80;;
67665;SDS011;54448;51.472;-2.574;2023-04-06T14:02:02;4.85;;;0.98;;
67665;SDS011;54448;51.472;-2.574;2023-04-06T14:04:27;7.38;;;1.27;;
67665;SDS011;54448;51.472;-2.574;2023-04-06T14:06:53;3.38;;;0.77;;
67665;SDS011;54448;51.472;-2.574;2023-04-06T14:09:18;3.45;;;0.60;;
67665;SDS011;54448;51.472;-2.574;2023-04-06T14:11:44;10.05;;;1.40;;
67665;SDS011;54448;51.472;-2.574;2023-04-06T14:14:09;3.67;;;1.00;;
67665;SDS011;54448;51.472;-2.574;2023-04-06T14:16:34;3.40;;;0.85;;
67665;SDS011;54448;51.472;-2.574;2023-04-06T14:19:00;8.05;;;1.20;;
67665;SDS011;54448;51.472;-2.574;2023-04-06T14:21:25;9.93;;;1.55;;
67665;SDS011;54448;51.472;-2.574;2023-04-06T14:23:51;10.77;;;1.80;;